createdAt,value
2022-10-31T00:04:06.437Z,16.76
2022-10-31T00:09:08.180Z,18.60
2022-10-31T00:14:09.888Z,18.39
2022-10-31T00:19:11.544Z,17.32
2022-10-31T00:24:13.225Z,17.97
2022-10-31T00:29:14.830Z,16.89
2022-10-31T00:34:16.379Z,17.89
2022-10-31T00:39:18.055Z,17.98
2022-10-31T00:44:19.611Z,17.55
2022-10-31T00:49:21.315Z,18.24
2022-10-31T00:54:28.974Z,17.83
2022-10-31T00:59:30.653Z,16.49
2022-10-31T01:04:32.242Z,17.24
2022-10-31T01:09:33.813Z,16.79
2022-10-31T01:14:35.447Z,17.39
2022-10-31T01:19:37.035Z,18.17
2022-10-31T01:24:38.667Z,16.86
2022-10-31T01:29:40.415Z,17.37
2022-10-31T01:34:42.082Z,15.72
2022-10-31T01:39:43.788Z,15.66
2022-10-31T01:44:52.290Z,16.05
2022-10-31T01:49:57.957Z,15.52
2022-10-31T01:55:33.609Z,16.78
2022-10-31T02:00:35.463Z,17.31
2022-10-31T02:05:37.254Z,16.68
2022-10-31T02:10:39.274Z,16.81
2022-10-31T02:15:44.134Z,17.08
2022-10-31T02:21:12.913Z,16.96
2022-10-31T02:26:32.883Z,17.35
2022-10-31T02:31:44.515Z,17.05
2022-10-31T02:37:11.088Z,16.34
2022-10-31T02:42:30.297Z,16.58
2022-10-31T02:47:37.690Z,17.64
2022-10-31T02:52:39.446Z,17.10
2022-10-31T02:57:43.582Z,16.65
2022-10-31T03:02:53.989Z,17.23
2022-10-31T03:08:23.583Z,17.28
2022-10-31T03:13:51.198Z,17.14
2022-10-31T03:19:06.210Z,15.95
2022-10-31T03:24:11.074Z,17.17
2022-10-31T03:29:16.711Z,16.75
2022-10-31T03:34:20.751Z,15.61
2022-10-31T03:39:24.120Z,16.21
2022-10-31T03:44:28.131Z,16.71
2022-10-31T03:49:30.804Z,15.63
2022-10-31T03:54:52.562Z,15.64
2022-10-31T04:00:07.942Z,16.42
2022-10-31T04:05:12.946Z,16.17
2022-10-31T04:10:16.938Z,16.03
2022-10-31T04:15:20.365Z,14.72
2022-10-31T04:20:31.847Z,16.34
2022-10-31T04:25:33.416Z,17.07
2022-10-31T04:30:34.938Z,15.98
2022-10-31T04:35:36.629Z,15.16
2022-10-31T04:40:38.346Z,14.55
2022-10-31T04:45:40.010Z,14.56
2022-10-31T04:50:41.839Z,14.20
2022-10-31T04:55:43.466Z,13.83
2022-10-31T05:00:45.171Z,15.19
2022-10-31T05:05:46.807Z,12.66
2022-10-31T05:10:48.390Z,13.81
2022-10-31T05:15:51.316Z,12.64
2022-10-31T05:20:53.322Z,11.45
2022-10-31T05:25:55.386Z,12.71
2022-10-31T05:30:56.967Z,13.67
2022-10-31T05:35:58.520Z,12.64
2022-10-31T05:41:02.986Z,14.34
2022-10-31T05:46:04.703Z,12.93
2022-10-31T05:51:06.286Z,13.85
2022-10-31T05:56:08.161Z,13.67
2022-10-31T06:01:09.857Z,13.93
2022-10-31T06:06:11.475Z,12.93
2022-10-31T06:11:13.022Z,13.43
2022-10-31T06:16:14.615Z,13.40
2022-10-31T06:21:18.890Z,15.31
2022-10-31T06:26:20.882Z,13.04
2022-10-31T06:31:22.429Z,13.98
2022-10-31T06:36:24.198Z,13.63
2022-10-31T06:41:25.844Z,14.06
2022-10-31T06:46:27.414Z,12.53
2022-10-31T06:51:29.029Z,14.04
2022-10-31T06:56:30.594Z,13.50
2022-10-31T07:01:32.310Z,14.22
2022-10-31T07:06:34.024Z,15.57
2022-10-31T07:11:35.586Z,14.25
2022-10-31T07:16:37.161Z,13.40
2022-10-31T07:21:38.726Z,16.06
2022-10-31T07:26:40.299Z,15.06
2022-10-31T07:31:41.950Z,15.18
2022-10-31T07:36:43.503Z,15.89
2022-10-31T07:41:45.074Z,16.04
2022-10-31T07:46:46.712Z,14.52
2022-10-31T07:51:48.272Z,14.41
2022-10-31T07:56:49.850Z,13.70
2022-10-31T08:01:51.416Z,15.29
2022-10-31T08:06:52.999Z,14.63
2022-10-31T08:11:54.855Z,14.00
2022-10-31T08:16:56.438Z,15.95
2022-10-31T08:21:59.219Z,13.97
2022-10-31T08:27:00.768Z,14.53
2022-10-31T08:32:02.322Z,13.54
2022-10-31T08:37:03.938Z,14.49
2022-10-31T08:42:05.527Z,14.65
2022-10-31T08:47:07.086Z,15.14
2022-10-31T08:52:14.173Z,13.36
2022-10-31T08:57:16.053Z,15.71
2022-10-31T09:02:17.707Z,15.41
2022-10-31T09:07:20.741Z,16.17
2022-10-31T09:12:22.936Z,17.25
2022-10-31T09:17:25.157Z,15.12
2022-10-31T09:22:26.991Z,15.61
2022-10-31T09:27:28.575Z,14.93
2022-10-31T09:32:30.223Z,16.02
2022-10-31T09:37:31.791Z,15.70
2022-10-31T09:42:47.208Z,15.59
2022-10-31T09:48:10.602Z,16.09
2022-10-31T09:53:23.867Z,15.27
2022-10-31T09:58:29.170Z,16.34
2022-10-31T10:03:45.805Z,16.38
2022-10-31T10:08:47.408Z,18.51
2022-10-31T10:13:57.956Z,16.73
2022-10-31T10:19:18.691Z,17.10
2022-10-31T10:24:44.463Z,16.16
2022-10-31T10:29:53.895Z,16.91
2022-10-31T10:35:01.103Z,17.15
2022-10-31T10:50:50.753Z,17.03
2022-10-31T10:56:14.408Z,16.49
2022-10-31T11:06:23.277Z,14.88
2022-10-31T11:11:28.728Z,14.97
2022-10-31T11:16:43.191Z,16.82
2022-10-31T11:21:52.598Z,17.14
2022-10-31T11:27:23.439Z,16.95
2022-10-31T11:32:27.370Z,17.31
2022-10-31T11:37:33.123Z,17.46
2022-10-31T11:42:41.544Z,15.38
2022-10-31T11:47:52.945Z,16.99
2022-10-31T11:52:57.168Z,17.50
2022-10-31T11:57:59.132Z,16.87
2022-10-31T12:03:25.147Z,17.00
2022-10-31T12:08:31.459Z,16.84
2022-10-31T12:14:03.995Z,17.09
2022-10-31T12:19:14.715Z,17.82
2022-10-31T12:24:37.933Z,17.44
2022-10-31T12:29:42.444Z,18.10
2022-10-31T12:34:48.824Z,17.54
2022-10-31T12:39:57.126Z,15.92
2022-10-31T12:45:01.692Z,16.41
2022-10-31T12:50:22.032Z,16.87
2022-10-31T12:55:38.771Z,17.07
2022-10-31T13:00:46.020Z,16.13
2022-10-31T13:05:53.298Z,18.24
2022-10-31T13:11:10.656Z,18.05
2022-10-31T13:16:22.457Z,18.48
2022-10-31T13:21:28.115Z,17.23
2022-10-31T13:26:42.035Z,18.40
2022-10-31T13:31:44.137Z,16.49
2022-10-31T13:36:58.854Z,16.50
2022-10-31T13:42:20.440Z,16.81
2022-10-31T13:47:27.265Z,18.68
2022-10-31T13:52:28.983Z,18.98
2022-10-31T13:57:42.683Z,19.15
2022-10-31T14:02:49.716Z,19.15
2022-10-31T14:07:53.811Z,17.63
2022-10-31T14:13:15.882Z,18.78
2022-10-31T14:18:31.671Z,18.77
2022-10-31T14:23:37.321Z,20.20
2022-10-31T14:28:38.913Z,19.87
2022-10-31T14:33:43.603Z,19.64
2022-10-31T14:39:18.914Z,18.41
2022-10-31T14:44:48.286Z,19.09
2022-10-31T14:50:35.381Z,19.14
2022-10-31T14:55:47.780Z,18.75
2022-10-31T15:05:14.698Z,16.55
2022-10-31T15:10:30.647Z,16.61
2022-10-31T15:15:33.937Z,16.24
2022-10-31T15:20:43.982Z,16.69
2022-10-31T15:25:46.952Z,16.45
2022-10-31T15:30:59.509Z,17.22
2022-10-31T15:36:03.300Z,15.35
2022-10-31T15:41:22.875Z,18.02
2022-10-31T15:46:24.510Z,16.35
2022-10-31T15:51:32.550Z,16.06
2022-10-31T15:56:34.212Z,15.92
2022-10-31T16:01:35.955Z,17.84
2022-10-31T16:06:37.706Z,16.41
2022-10-31T16:11:40.616Z,17.52
2022-10-31T16:16:47.475Z,17.76
2022-10-31T16:21:53.489Z,16.66
2022-10-31T16:27:06.125Z,17.92
2022-10-31T16:32:27.441Z,16.21
2022-10-31T16:37:29.076Z,16.48
2022-10-31T16:42:30.691Z,15.73
2022-10-31T16:47:32.362Z,15.43
2022-10-31T16:52:38.219Z,17.34
2022-10-31T16:57:53.040Z,15.05
2022-10-31T17:02:57.984Z,16.56
2022-10-31T17:08:00.351Z,14.65
2022-10-31T17:13:04.807Z,14.31
2022-10-31T17:18:06.528Z,14.07
2022-10-31T17:23:10.543Z,14.84
2022-10-31T17:28:14.441Z,14.62
2022-10-31T17:33:17.169Z,14.21
2022-10-31T17:38:18.807Z,14.16
2022-10-31T17:43:20.559Z,14.04
2022-10-31T17:48:22.221Z,14.00
2022-10-31T17:53:23.854Z,14.45
2022-10-31T17:58:25.500Z,14.63
2022-10-31T18:03:27.330Z,14.07
2022-10-31T18:08:31.610Z,15.65
2022-10-31T18:13:33.177Z,17.09
2022-10-31T18:18:34.851Z,17.51
2022-10-31T18:23:36.682Z,17.34
2022-10-31T18:28:38.459Z,17.73
2022-10-31T18:33:42.459Z,15.84
2022-10-31T18:38:46.866Z,16.90
2022-10-31T18:43:48.477Z,17.69
2022-10-31T18:48:50.070Z,16.54
2022-10-31T18:53:57.430Z,15.90
2022-10-31T18:59:03.409Z,17.96
2022-10-31T19:04:05.309Z,16.19
2022-10-31T19:09:09.736Z,15.46
2022-10-31T19:14:13.570Z,16.22
2022-10-31T19:19:15.137Z,17.32
2022-10-31T19:24:16.747Z,16.66
2022-10-31T19:29:18.310Z,17.42
2022-10-31T19:34:19.919Z,17.05
2022-10-31T19:39:21.482Z,16.57
2022-10-31T19:44:23.146Z,15.91
2022-10-31T19:49:24.869Z,16.14
2022-10-31T19:54:26.411Z,16.37
2022-10-31T19:59:28.087Z,16.91
2022-10-31T20:04:29.654Z,15.24
2022-10-31T20:09:31.309Z,17.44
2022-10-31T20:14:32.946Z,16.85
2022-10-31T20:19:34.673Z,13.93
2022-10-31T20:24:36.443Z,13.56
2022-10-31T20:29:37.994Z,14.10
2022-10-31T20:34:39.640Z,14.44
2022-10-31T20:39:41.266Z,16.00
2022-10-31T20:44:42.821Z,16.07
2022-10-31T21:00:37.302Z,15.44
2022-10-31T21:05:38.939Z,16.42
